Time;durP1;ratioP1;P1;durP2;ratioP2;P2;SDS_P1;SDS_P2;PMS_P1;PMS_P2;Temp;Humidity;BMP_temperature;BMP_pressure;BME280_temperature;BME280_humidity;BME280_pressure;Samples;Min_cycle;Max_cycle;Signal;HPM_P1;HPM_P2
2024/01/12 00:00:20;;;;;;;38.37;21.20;;;-0.20;99.90;;;;;;5058350;28;20178;-69
2024/01/12 00:02:46;;;;;;;32.57;20.37;;;-0.20;99.90;;;;;;5058786;28;20428;-70
2024/01/12 00:05:12;;;;;;;34.70;18.67;;;-0.20;99.90;;;;;;5058999;28;20515;-72
2024/01/12 00:07:37;;;;;;;30.80;19.27;;;-0.20;99.90;;;;;;5059147;28;20193;-67
2024/01/12 00:10:03;;;;;;;33.73;19.13;;;-0.20;99.90;;;;;;5074493;28;20189;-69
2024/01/12 00:12:29;;;;;;;36.70;21.00;;;-0.20;99.90;;;;;;5058245;28;20216;-68
2024/01/12 00:14:55;;;;;;;32.50;19.13;;;-0.20;99.90;;;;;;5058759;28;20499;-67
2024/01/12 00:17:21;;;;;;;39.13;20.83;;;-0.20;99.90;;;;;;5058015;28;20473;-69
2024/01/12 00:19:47;;;;;;;35.63;22.27;;;-0.30;99.90;;;;;;5059079;28;20477;-69
2024/01/12 00:22:12;;;;;;;33.50;20.40;;;-0.30;99.90;;;;;;5060780;28;20327;-68
2024/01/12 00:24:38;;;;;;;38.20;22.53;;;-0.30;99.90;;;;;;5061458;28;20494;-71
2024/01/12 00:27:04;;;;;;;35.83;20.20;;;-0.30;99.90;;;;;;5062394;28;20271;-68
2024/01/12 00:29:29;;;;;;;39.10;20.90;;;-0.20;99.90;;;;;;5060036;28;20638;-67
2024/01/12 00:31:55;;;;;;;38.93;21.17;;;-0.20;99.90;;;;;;5058462;28;20495;-68
2024/01/12 00:34:21;;;;;;;40.07;21.10;;;-0.30;99.90;;;;;;5059546;28;20221;-69
2024/01/12 00:36:48;;;;;;;44.17;22.97;;;-0.30;99.90;;;;;;5058477;28;20210;-69
2024/01/12 00:39:15;;;;;;;40.33;23.17;;;-0.30;99.90;;;;;;5055387;28;20562;-68
2024/01/12 00:41:41;;;;;;;41.50;22.70;;;-0.30;99.90;;;;;;5054702;28;20464;-67
2024/01/12 00:44:07;;;;;;;38.33;21.77;;;-0.30;99.90;;;;;;5055715;28;20419;-67
2024/01/12 00:46:33;;;;;;;35.37;20.57;;;-0.30;99.90;;;;;;5057312;28;20206;-69
2024/01/12 00:48:59;;;;;;;40.07;21.40;;;-0.30;99.90;;;;;;5055978;28;20557;-67
2024/01/12 00:51:25;;;;;;;35.90;22.00;;;-0.30;99.90;;;;;;5057624;28;20225;-69
2024/01/12 00:53:50;;;;;;;44.33;21.73;;;-0.30;99.90;;;;;;5057201;28;20195;-67
2024/01/12 00:56:16;;;;;;;40.93;23.53;;;-0.30;99.90;;;;;;5056797;28;20275;-68
2024/01/12 00:58:42;;;;;;;33.70;20.80;;;-0.30;99.90;;;;;;5057058;28;20273;-68
2024/01/12 01:01:11;;;;;;;32.30;20.83;;;-0.30;99.90;;;;;;5056051;28;20449;-67
2024/01/12 01:03:37;;;;;;;42.20;23.07;;;-0.30;99.90;;;;;;5054464;28;20198;-68
2024/01/12 01:06:04;;;;;;;48.63;23.57;;;-0.40;99.90;;;;;;5054164;28;20440;-68
2024/01/12 01:08:30;;;;;;;37.60;21.37;;;-0.30;99.90;;;;;;5054450;28;20420;-67
2024/01/12 01:10:55;;;;;;;38.47;21.80;;;-0.40;99.90;;;;;;5053706;28;20462;-70
2024/01/12 01:13:21;;;;;;;40.63;23.13;;;-0.40;99.90;;;;;;5052724;28;20213;-67
2024/01/12 01:15:47;;;;;;;36.10;23.07;;;-0.40;99.90;;;;;;5054581;28;20221;-68
2024/01/12 01:18:12;;;;;;;39.67;23.50;;;-0.40;99.90;;;;;;5053966;28;20220;-67
2024/01/12 01:20:38;;;;;;;41.60;22.83;;;-0.40;99.90;;;;;;5054125;28;20428;-69
2024/01/12 01:23:05;;;;;;;40.17;20.33;;;-0.40;99.90;;;;;;5054407;28;20671;-68
2024/01/12 01:25:31;;;;;;;40.00;20.30;;;-0.40;99.90;;;;;;5054074;28;20444;-68
2024/01/12 01:27:56;;;;;;;35.57;22.70;;;-0.40;99.90;;;;;;5053762;28;20694;-67
2024/01/12 01:30:22;;;;;;;35.40;20.77;;;-0.40;99.90;;;;;;5052524;28;20279;-67
2024/01/12 01:32:48;;;;;;;38.63;22.07;;;-0.40;99.90;;;;;;5053759;28;20205;-68
2024/01/12 01:35:15;;;;;;;40.83;23.67;;;-0.40;99.90;;;;;;5053614;28;20257;-69
2024/01/12 01:37:40;;;;;;;29.40;18.87;;;-0.40;99.90;;;;;;5053646;28;20427;-66
2024/01/12 01:40:07;;;;;;;32.10;19.57;;;-0.30;99.90;;;;;;5053734;28;20408;-68
2024/01/12 01:42:33;;;;;;;45.10;22.70;;;-0.30;99.90;;;;;;5053676;28;20228;-67
2024/01/12 01:45:00;;;;;;;43.13;23.00;;;-0.30;99.90;;;;;;5054088;28;20408;-67
2024/01/12 01:47:27;;;;;;;40.40;23.27;;;-0.30;99.90;;;;;;5053467;28;20412;-68
2024/01/12 01:49:53;;;;;;;38.50;21.20;;;-0.30;99.90;;;;;;5053562;28;20455;-68
2024/01/12 01:52:20;;;;;;;37.60;21.80;;;-0.30;99.90;;;;;;5053789;28;20500;-69
2024/01/12 01:54:46;;;;;;;39.77;22.50;;;-0.30;99.90;;;;;;5069856;28;20511;-67
2024/01/12 01:57:12;;;;;;;33.20;21.47;;;-0.30;99.90;;;;;;5053452;28;20501;-67
2024/01/12 01:59:39;;;;;;;36.20;20.47;;;-0.30;99.90;;;;;;5054265;28;20424;-68
2024/01/12 02:02:05;;;;;;;37.80;23.30;;;-0.20;99.90;;;;;;5052699;28;20185;-68
2024/01/12 02:04:31;;;;;;;33.17;20.17;;;-0.20;99.90;;;;;;5054000;28;20431;-67
2024/01/12 02:06:57;;;;;;;38.70;20.40;;;-0.20;99.90;;;;;;5054019;28;20445;-68
2024/01/12 02:09:24;;;;;;;32.53;18.67;;;-0.20;99.90;;;;;;5053931;28;20472;-68
2024/01/12 02:11:49;;;;;;;39.00;22.40;;;-0.20;99.90;;;;;;5053332;28;20452;-67
2024/01/12 02:14:15;;;;;;;35.90;21.80;;;-0.20;99.90;;;;;;5054644;28;20443;-67
2024/01/12 02:16:41;;;;;;;38.60;21.83;;;-0.20;99.90;;;;;;5057824;28;20213;-67
2024/01/12 02:19:06;;;;;;;42.43;24.47;;;-0.20;99.90;;;;;;5057255;28;20181;-68
2024/01/12 02:21:32;;;;;;;40.33;21.97;;;-0.20;99.90;;;;;;5057617;28;20722;-68
2024/01/12 02:23:58;;;;;;;35.77;22.53;;;-0.20;99.90;;;;;;5057654;28;20225;-69
2024/01/12 02:26:24;;;;;;;37.40;22.07;;;-0.20;99.90;;;;;;5057166;28;20263;-69
2024/01/12 02:28:49;;;;;;;41.33;21.67;;;-0.20;99.90;;;;;;5056987;28;20186;-67
2024/01/12 02:31:18;;;;;;;50.30;25.60;;;-0.20;99.90;;;;;;5057650;28;20213;-67
2024/01/12 02:33:48;;;;;;;39.50;25.40;;;-0.20;99.90;;;;;;5058009;28;20193;-68
2024/01/12 02:36:13;;;;;;;39.63;23.63;;;-0.20;99.90;;;;;;5058325;28;20509;-69
2024/01/12 02:38:39;;;;;;;33.00;21.03;;;-0.30;99.90;;;;;;5058159;28;20864;-69
2024/01/12 02:41:04;;;;;;;40.53;23.60;;;-0.30;99.90;;;;;;5057112;28;20190;-69
2024/01/12 02:43:30;;;;;;;35.63;23.87;;;-0.30;99.90;;;;;;5057429;28;20212;-68
2024/01/12 02:45:56;;;;;;;35.97;22.87;;;-0.20;99.90;;;;;;5057061;28;20339;-67
2024/01/12 02:48:21;;;;;;;37.30;23.00;;;-0.20;99.90;;;;;;5057215;28;20228;-69
2024/01/12 02:50:47;;;;;;;42.40;23.40;;;-0.20;99.90;;;;;;5056952;28;20205;-66
2024/01/12 02:53:13;;;;;;;39.60;24.67;;;-0.20;99.90;;;;;;5057300;28;20212;-69
2024/01/12 02:55:38;;;;;;;40.90;24.13;;;-0.20;99.90;;;;;;5057378;28;20209;-69
2024/01/12 02:58:04;;;;;;;42.83;26.77;;;-0.20;99.90;;;;;;5057827;28;20185;-68
2024/01/12 03:00:30;;;;;;;40.80;26.13;;;-0.20;99.90;;;;;;5057231;28;20208;-67
2024/01/12 03:02:56;;;;;;;38.73;23.50;;;-0.20;99.90;;;;;;5056664;28;20178;-67
2024/01/12 03:05:22;;;;;;;40.93;25.57;;;-0.20;99.90;;;;;;5061647;28;20474;-72
2024/01/12 03:07:48;;;;;;;41.13;24.77;;;-0.20;99.90;;;;;;5057270;28;20424;-66
2024/01/12 03:10:16;;;;;;;40.80;25.67;;;-0.20;99.90;;;;;;5056916;28;20309;-68
2024/01/12 03:12:42;;;;;;;41.73;24.30;;;-0.20;99.90;;;;;;5056412;28;20214;-68
2024/01/12 03:15:08;;;;;;;48.80;28.93;;;-0.20;99.90;;;;;;5056700;28;20693;-68
2024/01/12 03:17:34;;;;;;;49.97;30.30;;;-0.10;99.90;;;;;;5056590;28;20194;-67
2024/01/12 03:19:59;;;;;;;42.57;26.73;;;-0.10;99.90;;;;;;5056337;28;20721;-67
2024/01/12 03:22:25;;;;;;;48.07;27.40;;;-0.10;99.90;;;;;;5056942;28;20416;-67
2024/01/12 03:24:51;;;;;;;42.77;24.27;;;-0.10;99.90;;;;;;5056971;28;20251;-68
2024/01/12 03:27:16;;;;;;;44.43;27.03;;;-0.10;99.90;;;;;;5055839;28;20189;-70
2024/01/12 03:29:42;;;;;;;42.80;24.47;;;-0.10;99.90;;;;;;5056284;28;20482;-67
2024/01/12 03:32:07;;;;;;;48.30;27.70;;;-0.10;99.90;;;;;;5055915;28;20228;-69
2024/01/12 03:34:33;;;;;;;43.70;26.90;;;-0.10;99.90;;;;;;5055693;28;20193;-69
2024/01/12 03:36:59;;;;;;;44.37;26.30;;;-0.10;99.90;;;;;;5056053;28;20233;-69
2024/01/12 03:39:24;;;;;;;50.60;29.40;;;-0.10;99.90;;;;;;5055856;28;20440;-67
2024/01/12 03:41:50;;;;;;;52.30;27.30;;;-0.10;99.90;;;;;;5055859;28;20625;-67
2024/01/12 03:44:15;;;;;;;42.87;24.90;;;-0.10;99.90;;;;;;5055750;28;20204;-67
2024/01/12 03:46:41;;;;;;;59.33;30.60;;;-0.10;99.90;;;;;;5056575;28;20514;-67
2024/01/12 03:49:06;;;;;;;70.23;35.90;;;0.00;99.90;;;;;;5055009;28;20201;-69
2024/01/12 03:51:32;;;;;;;73.40;36.57;;;0.00;99.90;;;;;;5055847;28;20609;-68
2024/01/12 03:53:58;;;;;;;74.57;37.03;;;0.10;99.90;;;;;;5055357;28;20186;-68
2024/01/12 03:56:23;;;;;;;74.13;35.00;;;0.10;99.90;;;;;;5055685;28;20236;-68
2024/01/12 03:58:49;;;;;;;70.17;32.93;;;0.00;99.90;;;;;;5055742;28;20228;-71
2024/01/12 04:01:14;;;;;;;64.73;32.17;;;0.00;99.90;;;;;;5055554;28;20200;-69
2024/01/12 04:03:41;;;;;;;61.87;33.83;;;0.00;99.90;;;;;;5053587;28;20212;-70
2024/01/12 04:06:09;;;;;;;78.40;35.97;;;0.00;99.90;;;;;;5055478;28;20300;-66
2024/01/12 04:08:35;;;;;;;64.70;32.97;;;0.00;99.90;;;;;;5055497;28;20416;-70
2024/01/12 04:11:01;;;;;;;67.00;33.90;;;0.00;99.90;;;;;;5055064;28;20481;-69
2024/01/12 04:13:26;;;;;;;74.60;37.97;;;0.00;99.90;;;;;;5055058;28;20182;-69
2024/01/12 04:15:53;;;;;;;77.50;40.17;;;0.00;99.90;;;;;;5055246;28;20202;-69
2024/01/12 04:18:18;;;;;;;74.30;36.30;;;0.00;99.90;;;;;;5055160;28;20218;-69
2024/01/12 04:20:44;;;;;;;72.77;35.60;;;0.00;99.90;;;;;;5054607;28;20428;-68
2024/01/12 04:23:10;;;;;;;60.60;30.03;;;0.00;99.90;;;;;;5055314;28;20573;-69
2024/01/12 04:25:35;;;;;;;59.33;30.47;;;0.00;99.90;;;;;;5055211;28;20213;-70
2024/01/12 04:28:01;;;;;;;59.60;31.60;;;0.00;99.90;;;;;;5055260;28;20178;-68
2024/01/12 04:30:26;;;;;;;57.07;32.67;;;0.00;99.90;;;;;;5054615;28;20213;-68
2024/01/12 04:32:53;;;;;;;56.73;30.43;;;0.00;99.90;;;;;;5054493;28;20590;-68
2024/01/12 04:35:18;;;;;;;76.80;36.57;;;0.00;99.90;;;;;;5054459;28;20201;-69
2024/01/12 04:37:44;;;;;;;74.80;37.50;;;0.00;99.90;;;;;;5054075;28;20713;-69
2024/01/12 04:40:10;;;;;;;79.07;35.60;;;0.10;99.90;;;;;;5055087;28;20173;-68
2024/01/12 04:42:36;;;;;;;75.43;34.87;;;0.00;99.90;;;;;;5054345;28;20236;-67
2024/01/12 04:45:01;;;;;;;65.07;32.90;;;0.00;99.90;;;;;;5054285;28;20816;-68
2024/01/12 04:47:27;;;;;;;67.50;32.60;;;0.10;99.90;;;;;;5053975;28;20216;-68
2024/01/12 04:49:53;;;;;;;61.47;30.20;;;0.10;99.90;;;;;;5054395;28;20800;-69
2024/01/12 04:52:18;;;;;;;65.07;30.40;;;0.10;99.90;;;;;;5053489;28;20296;-68
2024/01/12 04:54:44;;;;;;;67.70;34.13;;;0.10;99.90;;;;;;5054656;28;20198;-65
2024/01/12 04:57:10;;;;;;;75.33;32.70;;;0.10;99.90;;;;;;5054306;28;20209;-69
2024/01/12 04:59:36;;;;;;;90.17;39.43;;;0.10;99.90;;;;;;5069919;28;20444;-67
2024/01/12 05:02:01;;;;;;;82.03;38.30;;;0.10;99.90;;;;;;5056089;28;20280;-72
2024/01/12 05:04:27;;;;;;;75.60;35.33;;;0.10;99.90;;;;;;5056207;28;20462;-68
2024/01/12 05:06:53;;;;;;;77.90;35.67;;;0.10;99.90;;;;;;5058276;28;20723;-68
2024/01/12 05:09:18;;;;;;;75.90;34.90;;;0.00;99.90;;;;;;5057223;28;20216;-70
2024/01/12 05:11:44;;;;;;;78.93;35.60;;;0.00;99.90;;;;;;5056135;28;20567;-69
2024/01/12 05:14:09;;;;;;;96.00;41.77;;;0.00;99.90;;;;;;5057218;28;20186;-68
2024/01/12 05:16:35;;;;;;;84.20;40.60;;;0.10;99.90;;;;;;5055979;28;20205;-70
2024/01/12 05:19:01;;;;;;;81.00;39.60;;;0.00;99.90;;;;;;5055181;28;20186;-68
2024/01/12 05:21:26;;;;;;;88.80;38.57;;;0.00;99.90;;;;;;5056942;28;20278;-68
2024/01/12 05:23:52;;;;;;;92.20;39.77;;;0.10;99.90;;;;;;5072955;28;20197;-69
2024/01/12 05:26:17;;;;;;;100.00;40.63;;;0.00;99.90;;;;;;5056643;28;20240;-68
2024/01/12 05:28:43;;;;;;;105.17;41.07;;;0.10;99.90;;;;;;5057433;28;20223;-70
2024/01/12 05:31:09;;;;;;;90.80;38.27;;;0.10;99.90;;;;;;5057043;28;20166;-69
2024/01/12 05:33:35;;;;;;;91.03;41.73;;;0.10;99.90;;;;;;5066610;28;20790;-71
2024/01/12 05:36:01;;;;;;;96.77;43.27;;;0.10;99.90;;;;;;5056334;28;20448;-70
2024/01/12 05:38:27;;;;;;;100.57;41.30;;;0.10;99.90;;;;;;5063892;28;20948;-67
2024/01/12 05:40:52;;;;;;;115.37;47.10;;;0.10;99.90;;;;;;5063970;28;20238;-69
2024/01/12 05:43:19;;;;;;;103.93;43.40;;;0.10;99.90;;;;;;5058102;28;20189;-69
2024/01/12 05:45:45;;;;;;;123.63;48.77;;;0.00;99.90;;;;;;5056113;28;20296;-68
2024/01/12 05:48:12;;;;;;;110.03;46.50;;;0.00;99.90;;;;;;5057807;28;20448;-69
2024/01/12 05:50:38;;;;;;;106.20;46.23;;;0.00;99.90;;;;;;5060001;28;20416;-69
2024/01/12 05:53:05;;;;;;;112.03;46.07;;;0.00;99.90;;;;;;5060767;28;20965;-70
2024/01/12 05:55:31;;;;;;;108.17;43.90;;;0.00;99.90;;;;;;5060468;28;20513;-70
2024/01/12 05:57:56;;;;;;;97.73;42.40;;;0.00;99.90;;;;;;5060708;28;20411;-68
2024/01/12 06:00:22;;;;;;;111.80;43.13;;;0.00;99.90;;;;;;5062280;28;20249;-69
2024/01/12 06:02:48;;;;;;;100.00;43.47;;;0.00;99.90;;;;;;5060731;28;20193;-70
2024/01/12 06:05:13;;;;;;;117.47;46.27;;;0.00;99.90;;;;;;5061738;28;20243;-70
2024/01/12 06:07:39;;;;;;;107.53;45.60;;;0.00;99.90;;;;;;5061186;28;20271;-70
2024/01/12 06:10:06;;;;;;;118.83;47.37;;;0.10;99.90;;;;;;5059826;28;20193;-70
2024/01/12 06:12:31;;;;;;;104.10;43.13;;;0.10;99.90;;;;;;5060254;28;20216;-68
2024/01/12 06:14:59;;;;;;;90.93;40.30;;;0.10;99.90;;;;;;5060567;28;20705;-71
2024/01/12 06:17:25;;;;;;;103.30;42.90;;;0.20;99.90;;;;;;5058898;28;20272;-71
2024/01/12 06:19:51;;;;;;;103.33;41.70;;;0.20;99.90;;;;;;5060042;28;20435;-68
2024/01/12 06:22:16;;;;;;;97.47;39.87;;;0.20;99.90;;;;;;5060850;28;20618;-72
2024/01/12 06:24:42;;;;;;;100.80;42.93;;;0.20;99.90;;;;;;5076941;28;20236;-70
2024/01/12 06:27:07;;;;;;;92.77;39.90;;;0.20;99.90;;;;;;5061112;28;20241;-72
2024/01/12 06:29:34;;;;;;;93.63;41.60;;;0.20;99.90;;;;;;5077226;28;20197;-72
2024/01/12 06:32:02;;;;;;;78.73;40.00;;;0.20;99.90;;;;;;5061257;28;20217;-71
2024/01/12 06:34:28;;;;;;;102.03;42.00;;;0.30;99.90;;;;;;5062847;28;20698;-69
2024/01/12 06:36:56;;;;;;;98.77;41.00;;;0.30;99.90;;;;;;5076349;28;20435;-69
2024/01/12 06:39:21;;;;;;;91.20;36.77;;;0.30;99.90;;;;;;5061670;28;20220;-69
2024/01/12 06:41:47;;;;;;;96.53;41.57;;;0.30;99.90;;;;;;5063052;28;20456;-70
2024/01/12 06:44:13;;;;;;;101.40;41.53;;;0.30;99.90;;;;;;5062489;28;20510;-70
2024/01/12 06:46:43;;;;;;;103.53;42.90;;;0.30;99.90;;;;;;5064127;28;20230;-70
2024/01/12 06:49:09;;;;;;;87.37;36.70;;;0.30;99.90;;;;;;5078545;28;20690;-71
2024/01/12 06:51:35;;;;;;;91.17;39.87;;;0.40;99.90;;;;;;5063517;28;20460;-73
2024/01/12 06:54:01;;;;;;;106.50;38.73;;;0.40;99.90;;;;;;5061831;28;20531;-70
2024/01/12 06:56:27;;;;;;;81.27;34.03;;;0.40;99.90;;;;;;5076876;28;20444;-70
2024/01/12 06:58:52;;;;;;;76.43;33.67;;;0.40;99.90;;;;;;5076551;28;20522;-69
2024/01/12 07:01:18;;;;;;;70.40;29.47;;;0.40;99.90;;;;;;5060999;28;20427;-71
2024/01/12 07:03:45;;;;;;;76.20;32.67;;;0.40;99.90;;;;;;5062521;28;20221;-69
2024/01/12 07:06:11;;;;;;;79.40;34.73;;;0.40;99.90;;;;;;5063877;28;20529;-70
2024/01/12 07:08:37;;;;;;;68.57;31.70;;;0.40;99.90;;;;;;5067028;28;20416;-70
2024/01/12 07:11:05;;;;;;;79.70;33.37;;;0.40;99.90;;;;;;5065757;28;20487;-70
2024/01/12 07:13:30;;;;;;;75.20;32.77;;;0.40;99.90;;;;;;5063224;28;20178;-70
2024/01/12 07:15:56;;;;;;;85.67;37.93;;;0.50;99.90;;;;;;5065077;28;20776;-71
2024/01/12 07:18:22;;;;;;;76.23;33.17;;;0.50;99.90;;;;;;5062902;28;20452;-70
2024/01/12 07:20:48;;;;;;;93.43;38.77;;;0.50;99.90;;;;;;5066603;28;20432;-69
2024/01/12 07:23:13;;;;;;;96.00;38.17;;;0.50;99.90;;;;;;5068275;28;20201;-70
2024/01/12 07:25:39;;;;;;;78.30;34.13;;;0.50;99.90;;;;;;5066587;28;20487;-71
2024/01/12 07:28:06;;;;;;;91.53;39.78;;;0.50;99.90;;;;;;5066449;28;20789;-69
2024/01/12 07:30:31;;;;;;;78.90;39.58;;;0.50;99.90;;;;;;5081587;28;20499;-72
2024/01/12 07:32:57;;;;;;;68.87;32.60;;;0.50;99.90;;;;;;5063422;28;20255;-72
2024/01/12 07:35:23;;;;;;;66.50;31.00;;;0.50;99.90;;;;;;5064598;28;20253;-72
2024/01/12 07:37:50;;;;;;;76.82;35.53;;;0.50;99.90;;;;;;5065912;28;20415;-73
2024/01/12 07:40:16;;;;;;;92.97;39.37;;;0.50;99.90;;;;;;5062259;28;20205;-71
2024/01/12 07:42:42;;;;;;;75.83;34.67;;;0.60;99.90;;;;;;5061221;28;20542;-73
2024/01/12 07:45:08;;;;;;;77.53;33.33;;;0.60;99.90;;;;;;5059857;28;20722;-72
2024/01/12 07:47:34;;;;;;;84.43;38.30;;;0.60;99.90;;;;;;5063107;28;20423;-72
2024/01/12 07:49:59;;;;;;;88.83;37.50;;;0.60;99.90;;;;;;5064443;28;20761;-74
2024/01/12 07:52:26;;;;;;;77.00;33.27;;;0.60;99.90;;;;;;5062855;28;20209;-72
2024/01/12 07:54:52;;;;;;;67.20;30.90;;;0.50;99.90;;;;;;5062540;28;20201;-72
2024/01/12 07:57:17;;;;;;;64.40;26.03;;;0.60;99.90;;;;;;5061546;28;20416;-72
2024/01/12 07:59:43;;;;;;;67.67;29.93;;;0.60;99.90;;;;;;5073571;28;21295;-71
2024/01/12 08:02:09;;;;;;;49.70;26.00;;;0.60;99.90;;;;;;5061282;28;20225;-72
2024/01/12 08:04:37;;;;;;;58.17;25.83;;;0.60;99.90;;;;;;5061614;28;20189;-72
2024/01/12 08:07:03;;;;;;;56.70;24.63;;;0.60;99.90;;;;;;5059979;28;20292;-69
2024/01/12 08:09:29;;;;;;;67.10;30.93;;;0.60;99.90;;;;;;5059944;28;20535;-70
2024/01/12 08:11:55;;;;;;;76.43;34.57;;;0.70;99.90;;;;;;5060097;28;20678;-71
2024/01/12 08:14:20;;;;;;;64.87;29.57;;;0.60;99.90;;;;;;5059213;28;20190;-70
2024/01/12 08:16:46;;;;;;;58.87;24.67;;;0.70;99.90;;;;;;5060157;28;20220;-71
2024/01/12 08:19:12;;;;;;;51.63;23.73;;;0.60;99.90;;;;;;5059936;28;20196;-70
2024/01/12 08:21:38;;;;;;;48.53;20.40;;;0.60;99.90;;;;;;5057641;28;20456;-74
2024/01/12 08:24:03;;;;;;;51.40;23.93;;;0.70;99.90;;;;;;5061840;28;20209;-72
2024/01/12 08:26:29;;;;;;;56.90;22.23;;;0.70;99.90;;;;;;5077405;28;20256;-72
2024/01/12 08:28:56;;;;;;;70.20;31.80;;;0.70;99.90;;;;;;5062582;28;20225;-70
2024/01/12 08:31:22;;;;;;;61.63;27.73;;;0.70;99.90;;;;;;5064018;28;20173;-70
2024/01/12 08:33:49;;;;;;;66.17;25.00;;;0.70;99.90;;;;;;5063217;28;20492;-72
2024/01/12 08:36:16;;;;;;;46.63;22.37;;;0.80;99.90;;;;;;5078001;28;20507;-70
2024/01/12 08:38:42;;;;;;;65.33;29.83;;;0.70;99.90;;;;;;5060021;28;20420;-73
2024/01/12 08:41:07;;;;;;;86.53;32.00;;;0.80;99.90;;;;;;5065312;28;20503;-73
2024/01/12 08:43:33;;;;;;;83.13;32.70;;;0.80;99.90;;;;;;5067642;28;20432;-73
2024/01/12 08:45:59;;;;;;;70.70;29.53;;;0.80;99.90;;;;;;5066712;28;20212;-74
2024/01/12 08:48:24;;;;;;;81.20;31.83;;;0.80;99.90;;;;;;5061146;28;20199;-70
2024/01/12 08:50:50;;;;;;;77.63;32.53;;;0.80;99.90;;;;;;5061141;28;20194;-70
2024/01/12 08:53:16;;;;;;;66.73;28.07;;;0.80;99.90;;;;;;5062774;28;20228;-71
2024/01/12 08:55:42;;;;;;;57.23;23.40;;;0.80;99.90;;;;;;5060118;28;20464;-72
2024/01/12 08:58:08;;;;;;;59.53;27.03;;;0.90;99.90;;;;;;5055731;28;20249;-72
2024/01/12 09:00:34;;;;;;;66.83;24.10;;;0.90;99.90;;;;;;5065018;28;20190;-71
2024/01/12 09:03:00;;;;;;;52.70;22.00;;;0.90;99.90;;;;;;5060806;28;20926;-70
2024/01/12 09:05:25;;;;;;;51.97;23.53;;;0.90;99.90;;;;;;5060556;28;20197;-70
2024/01/12 09:07:51;;;;;;;48.93;20.57;;;0.90;99.90;;;;;;5055323;28;20221;-72
2024/01/12 09:10:17;;;;;;;44.20;19.70;;;0.90;99.90;;;;;;5061428;28;20186;-72
2024/01/12 09:12:43;;;;;;;38.90;19.20;;;0.90;99.90;;;;;;5059984;28;20223;-68
2024/01/12 09:15:09;;;;;;;45.37;20.30;;;0.90;99.90;;;;;;5060649;28;21093;-71
2024/01/12 09:17:35;;;;;;;53.90;23.00;;;0.90;99.90;;;;;;5056910;28;20493;-70
2024/01/12 09:20:01;;;;;;;53.43;24.60;;;0.80;99.90;;;;;;5056998;28;20417;-69
2024/01/12 09:22:26;;;;;;;49.03;23.37;;;0.80;99.90;;;;;;5059707;28;20432;-72
2024/01/12 09:24:52;;;;;;;50.10;22.77;;;0.80;99.90;;;;;;5056926;28;20421;-71
2024/01/12 09:27:18;;;;;;;51.73;22.13;;;0.80;99.90;;;;;;5076263;28;20197;-73
2024/01/12 09:29:43;;;;;;;46.50;23.77;;;0.80;99.90;;;;;;5058547;28;20652;-70
2024/01/12 09:32:09;;;;;;;47.47;23.73;;;0.80;99.90;;;;;;5060066;28;20205;-71
2024/01/12 09:34:35;;;;;;;49.00;21.87;;;0.80;99.90;;;;;;5059674;28;20203;-72
2024/01/12 09:37:00;;;;;;;45.30;20.93;;;0.80;99.90;;;;;;5059266;28;20198;-71
2024/01/12 09:39:26;;;;;;;48.60;20.40;;;0.80;99.90;;;;;;5079292;28;20235;-71
2024/01/12 09:42:00;;;;;;;56.60;23.60;;;0.90;99.90;;;;;;5059977;28;20221;-71
2024/01/12 09:44:28;;;;;;;44.30;22.80;;;0.80;99.90;;;;;;5075081;28;20291;-73
2024/01/12 09:46:56;;;;;;;44.83;21.40;;;0.90;99.90;;;;;;5061311;28;20713;-72
2024/01/12 09:49:28;;;;;;;51.30;23.13;;;0.90;99.90;;;;;;5085763;28;20419;-72
2024/01/12 09:51:54;;;;;;;48.87;23.40;;;0.90;99.90;;;;;;5059932;28;20480;-75
2024/01/12 09:54:20;;;;;;;48.03;19.97;;;1.00;99.90;;;;;;5079092;28;20444;-77
2024/01/12 09:56:47;;;;;;;36.53;19.20;;;1.00;99.90;;;;;;5081444;28;20444;-77
2024/01/12 09:59:13;;;;;;;38.43;21.20;;;1.00;99.90;;;;;;5065011;28;20435;-77
2024/01/12 10:01:42;;;;;;;37.43;19.13;;;1.00;99.90;;;;;;5085039;28;20393;-78
2024/01/12 10:04:08;;;;;;;38.00;17.80;;;1.00;99.90;;;;;;5070711;28;20423;-75
2024/01/12 10:06:35;;;;;;;34.93;18.10;;;1.00;99.90;;;;;;5061718;28;20498;-77
2024/01/12 10:09:01;;;;;;;36.40;18.10;;;1.10;99.90;;;;;;5063511;28;20690;-76
2024/01/12 10:11:27;;;;;;;34.03;16.07;;;1.20;99.90;;;;;;5068993;28;20491;-76
2024/01/12 10:14:00;;;;;;;37.97;18.23;;;1.10;99.90;;;;;;5066454;28;20416;-78
2024/01/12 10:16:30;;;;;;;38.30;20.60;;;1.10;99.90;;;;;;5062213;28;20486;-75
2024/01/12 10:18:57;;;;;;;37.03;18.80;;;1.10;99.90;;;;;;5049297;28;20486;-76
2024/01/12 10:21:24;;;;;;;34.13;18.63;;;1.20;99.90;;;;;;5085196;28;20487;-78
2024/01/12 10:23:51;;;;;;;38.83;20.20;;;1.20;99.90;;;;;;5061629;28;20455;-71
2024/01/12 10:26:17;;;;;;;37.27;18.17;;;1.10;99.90;;;;;;5059128;28;20450;-71
2024/01/12 10:28:44;;;;;;;41.63;20.80;;;1.20;99.90;;;;;;5059998;28;20472;-72
2024/01/12 10:31:10;;;;;;;32.27;16.10;;;1.20;99.90;;;;;;5061059;28;20494;-71
2024/01/12 10:33:36;;;;;;;44.57;20.23;;;1.20;99.90;;;;;;5059829;28;20435;-71
2024/01/12 10:36:21;;;;;;;34.87;17.20;;;1.20;99.90;;;;;;5063638;28;20876;-72
2024/01/12 10:38:49;;;;;;;37.80;19.30;;;1.20;99.90;;;;;;5041656;28;20522;-72
2024/01/12 10:41:19;;;;;;;38.60;18.33;;;1.20;99.90;;;;;;5063604;28;20744;-70
2024/01/12 10:43:48;;;;;;;35.47;17.67;;;1.20;99.90;;;;;;5064783;28;20431;-73
2024/01/12 10:46:22;;;;;;;37.80;17.87;;;1.20;99.90;;;;;;5066022;28;20458;-72
2024/01/12 10:49:02;;;;;;;45.13;22.63;;;1.20;99.90;;;;;;5062135;28;20419;-74
2024/01/12 10:51:33;;;;;;;40.67;19.43;;;1.20;99.90;;;;;;5066021;28;20413;-71
2024/01/12 10:54:22;;;;;;;33.90;18.00;;;1.30;99.90;;;;;;5078581;28;20459;-74
2024/01/12 10:56:48;;;;;;;45.60;22.70;;;1.30;99.90;;;;;;5057573;28;20444;-72
2024/01/12 10:59:14;;;;;;;38.03;19.40;;;1.30;99.90;;;;;;5066154;28;20546;-71
2024/01/12 11:01:41;;;;;;;41.37;18.80;;;1.30;99.90;;;;;;5076366;28;20916;-72
2024/01/12 11:04:07;;;;;;;42.90;22.23;;;1.30;99.90;;;;;;5060961;28;21409;-70
2024/01/12 11:06:35;;;;;;;45.43;20.83;;;1.30;99.90;;;;;;5060601;28;20537;-73
2024/01/12 11:09:01;;;;;;;50.20;24.60;;;1.30;99.90;;;;;;5059569;28;20877;-70
2024/01/12 11:11:35;;;;;;;47.43;24.10;;;1.30;99.90;;;;;;5060733;28;20431;-72
2024/01/12 11:14:02;;;;;;;54.93;26.83;;;1.30;99.90;;;;;;5061201;28;20923;-72
2024/01/12 11:16:28;;;;;;;50.87;23.93;;;1.30;99.90;;;;;;5064881;28;20468;-70
2024/01/12 11:18:54;;;;;;;50.20;24.27;;;1.30;99.90;;;;;;5063301;28;20466;-70
2024/01/12 11:21:26;;;;;;;46.90;22.73;;;1.40;99.90;;;;;;5062265;28;20417;-72
2024/01/12 11:23:53;;;;;;;45.50;23.63;;;1.40;99.90;;;;;;5063539;28;20224;-74
2024/01/12 11:26:19;;;;;;;47.13;22.63;;;1.30;99.90;;;;;;5062658;28;20497;-72
2024/01/12 11:28:45;;;;;;;43.93;21.70;;;1.40;99.90;;;;;;5062748;28;20931;-73
2024/01/12 11:31:11;;;;;;;53.03;25.40;;;1.30;99.90;;;;;;5063404;28;20432;-71
2024/01/12 11:33:45;;;;;;;52.83;26.73;;;1.30;99.90;;;;;;5060206;28;20224;-74
2024/01/12 11:36:14;;;;;;;61.20;27.50;;;1.30;99.90;;;;;;5063763;28;20220;-73
2024/01/12 11:38:40;;;;;;;65.87;25.90;;;1.30;99.90;;;;;;5079743;28;20432;-71
2024/01/12 11:41:12;;;;;;;45.30;21.70;;;1.30;99.90;;;;;;5060014;28;20456;-73
2024/01/12 11:43:38;;;;;;;54.17;25.27;;;1.30;99.90;;;;;;5064544;28;20694;-73
2024/01/12 11:46:05;;;;;;;59.73;27.20;;;1.30;99.90;;;;;;5063238;28;20903;-72
2024/01/12 11:48:31;;;;;;;63.70;27.27;;;1.30;99.90;;;;;;5084949;28;20432;-74
2024/01/12 11:50:58;;;;;;;58.53;25.13;;;1.30;99.90;;;;;;5068994;28;20443;-75
2024/01/12 11:53:23;;;;;;;62.77;27.73;;;1.30;99.90;;;;;;5080742;28;20479;-71
2024/01/12 11:55:49;;;;;;;69.10;28.27;;;1.40;99.90;;;;;;5061019;28;20464;-75
2024/01/12 11:58:15;;;;;;;63.73;26.23;;;1.40;99.90;;;;;;5077670;28;20197;-71
2024/01/12 12:00:40;;;;;;;63.00;27.57;;;1.40;99.90;;;;;;5059393;28;20776;-73
2024/01/12 12:03:08;;;;;;;59.63;25.57;;;1.50;99.90;;;;;;5063801;28;20193;-74
2024/01/12 12:05:34;;;;;;;72.33;27.90;;;1.50;99.90;;;;;;5042024;28;20216;-74
2024/01/12 12:08:02;;;;;;;64.03;26.67;;;1.50;99.90;;;;;;5063009;28;20424;-73
2024/01/12 12:10:28;;;;;;;55.67;24.77;;;1.50;99.90;;;;;;5067405;28;20190;-71
2024/01/12 12:12:54;;;;;;;61.80;28.17;;;1.50;99.90;;;;;;5063530;28;20539;-72
2024/01/12 12:15:20;;;;;;;51.93;23.53;;;1.50;99.90;;;;;;5061709;28;21253;-73
2024/01/12 12:17:47;;;;;;;50.30;25.10;;;1.50;99.90;;;;;;5061129;28;20529;-73
2024/01/12 12:20:13;;;;;;;48.83;21.97;;;1.60;99.90;;;;;;5061115;28;20197;-73
2024/01/12 12:22:39;;;;;;;59.53;26.53;;;1.60;99.90;;;;;;5062469;28;20430;-71
2024/01/12 12:25:12;;;;;;;61.93;30.20;;;1.60;99.90;;;;;;5062207;28;20447;-72
2024/01/12 12:27:42;;;;;;;51.10;25.83;;;1.60;99.90;;;;;;5076850;28;20446;-73